NCAR-RAP Real-Time Weather Data

Output produced by METARs form (10 April 2020  06:17 UTC)
found at http://weather.rap.ucar.edu/surface/
 
KLYH 100554Z AUTO VRB04KT 10SM CLR 09/M06 A2964 RMK AO2 SLP031 T00941061 10161 20089 50012 $